createdAt,value
2022-09-24T00:02:18.853Z,7.54
2022-09-24T00:04:45.967Z,7.43
2022-09-24T00:07:12.755Z,7.49
2022-09-24T00:09:39.587Z,7.50
2022-09-24T00:12:06.601Z,7.50
2022-09-24T00:14:33.376Z,7.49
2022-09-24T00:17:00.147Z,7.43
2022-09-24T00:19:27.137Z,7.46
2022-09-24T00:21:53.997Z,7.44
2022-09-24T00:24:39.171Z,7.30
2022-09-24T00:27:06.440Z,7.29
2022-09-24T00:29:34.254Z,7.27
2022-09-24T00:32:01.735Z,7.24
2022-09-24T00:34:29.567Z,7.28
2022-09-24T00:36:56.346Z,7.28
2022-09-24T00:39:23.138Z,7.24
2022-09-24T00:41:50.282Z,7.21
2022-09-24T00:44:35.997Z,7.14
2022-09-24T00:47:03.065Z,7.20
2022-09-24T00:49:29.932Z,7.23
2022-09-24T00:51:56.824Z,7.19
2022-09-24T00:54:26.500Z,7.14
2022-09-24T00:56:54.110Z,7.09
2022-09-24T00:59:23.189Z,7.09
2022-09-24T01:01:51.790Z,7.09
2022-09-24T01:04:22.286Z,7.11
2022-09-24T01:06:50.030Z,7.05
2022-09-24T01:09:18.767Z,7.03
2022-09-24T01:11:45.488Z,7.01
2022-09-24T01:14:26.864Z,6.97
2022-09-24T01:16:57.052Z,6.84
2022-09-24T01:19:42.539Z,6.89
2022-09-24T01:22:28.210Z,6.86
2022-09-24T01:24:55.707Z,6.85
2022-09-24T01:27:25.692Z,6.85
2022-09-24T01:30:01.786Z,6.79
2022-09-24T01:32:33.364Z,6.83
2022-09-24T01:35:06.779Z,6.80
2022-09-24T01:37:35.337Z,6.66
2022-09-24T01:40:03.473Z,6.62
2022-09-24T01:42:31.327Z,6.75
2022-09-24T01:44:58.999Z,6.75
2022-09-24T01:47:35.093Z,6.83
2022-09-24T01:50:03.770Z,6.74
2022-09-24T01:52:34.571Z,6.58
2022-09-24T01:55:03.788Z,6.70
2022-09-24T01:57:36.403Z,6.61
2022-09-24T02:00:03.414Z,6.60
2022-09-24T02:02:45.475Z,6.68
2022-09-24T02:05:32.754Z,6.81
2022-09-24T02:08:12.041Z,6.74
2022-09-24T02:10:46.495Z,6.65
2022-09-24T02:13:15.762Z,6.56
2022-09-24T02:15:45.789Z,6.77
2022-09-24T02:18:14.543Z,6.68
2022-09-24T02:20:43.122Z,6.74
2022-09-24T02:23:11.868Z,6.71
2022-09-24T02:25:58.979Z,6.80
2022-09-24T02:28:26.751Z,6.83
2022-09-24T02:31:04.866Z,6.79
2022-09-24T02:33:51.595Z,6.84
2022-09-24T02:36:18.779Z,6.85
2022-09-24T02:38:46.902Z,6.80
2022-09-24T02:41:14.053Z,6.89
2022-09-24T02:43:41.210Z,6.81
2022-09-24T02:46:11.318Z,6.89
2022-09-24T02:48:38.175Z,6.80
2022-09-24T02:51:05.692Z,6.68
2022-09-24T02:53:33.197Z,6.72
2022-09-24T02:56:03.109Z,6.69
2022-09-24T02:58:30.834Z,6.71
2022-09-24T03:00:57.954Z,6.75
2022-09-24T03:03:24.730Z,6.69
2022-09-24T03:05:54.981Z,6.77
2022-09-24T03:08:22.323Z,6.78
2022-09-24T03:10:51.200Z,6.74
2022-09-24T03:13:18.440Z,6.73
2022-09-24T03:15:46.158Z,6.80
2022-09-24T03:18:13.289Z,6.80
2022-09-24T03:20:40.232Z,6.77
2022-09-24T03:23:07.199Z,6.68
2022-09-24T03:25:33.955Z,6.68
2022-09-24T03:28:00.805Z,6.72
2022-09-24T03:30:46.295Z,6.66
2022-09-24T03:33:13.918Z,6.55
2022-09-24T03:35:42.505Z,6.68
2022-09-24T03:38:09.286Z,6.61
2022-09-24T03:40:36.154Z,6.67
2022-09-24T03:43:03.255Z,6.68
2022-09-24T03:45:30.026Z,6.62
2022-09-24T03:47:56.825Z,6.65
2022-09-24T03:50:23.829Z,6.57
2022-09-24T03:52:50.927Z,6.38
2022-09-24T03:55:17.920Z,6.54
2022-09-24T03:57:44.896Z,6.55
2022-09-24T04:00:11.993Z,6.41
2022-09-24T04:02:39.186Z,6.41
2022-09-24T04:05:06.363Z,6.43
2022-09-24T04:07:33.134Z,6.41
2022-09-24T04:10:00.036Z,6.35
2022-09-24T04:12:27.570Z,6.41
2022-09-24T04:14:54.444Z,6.28
2022-09-24T04:17:21.231Z,6.31
2022-09-24T04:19:48.268Z,6.21
2022-09-24T04:22:15.027Z,6.33
2022-09-24T04:24:41.830Z,6.31
2022-09-24T04:27:08.825Z,6.36
2022-09-24T04:29:35.591Z,6.34
2022-09-24T04:32:03.596Z,6.35
2022-09-24T04:34:30.595Z,6.37
2022-09-24T04:36:57.356Z,6.33
2022-09-24T04:39:26.891Z,6.26
2022-09-24T04:41:54.201Z,6.37
2022-09-24T04:44:21.055Z,6.35
2022-09-24T04:46:49.017Z,6.35
2022-09-24T04:49:16.217Z,6.36
2022-09-24T04:51:43.023Z,6.40
2022-09-24T04:54:10.462Z,6.44
2022-09-24T04:56:37.464Z,6.46
2022-09-24T04:59:04.736Z,6.43
2022-09-24T05:01:31.905Z,6.42
2022-09-24T05:03:58.958Z,6.45
2022-09-24T05:06:25.775Z,6.42
2022-09-24T05:08:53.302Z,6.41
2022-09-24T05:11:20.391Z,6.42
2022-09-24T05:13:47.199Z,6.34
2022-09-24T05:16:14.117Z,6.45
2022-09-24T05:18:41.304Z,6.50
2022-09-24T05:21:08.145Z,6.52
2022-09-24T05:23:34.922Z,6.57
2022-09-24T05:26:20.239Z,6.54
2022-09-24T05:28:47.078Z,6.61
2022-09-24T05:31:14.336Z,6.77
2022-09-24T05:33:41.162Z,6.81
2022-09-24T05:36:08.048Z,6.91
2022-09-24T05:38:35.007Z,6.99
2022-09-24T05:41:01.819Z,7.03
2022-09-24T05:43:28.780Z,6.98
2022-09-24T05:45:58.714Z,7.26
2022-09-24T05:48:26.199Z,7.62
2022-09-24T05:50:55.524Z,7.82
2022-09-24T05:53:23.306Z,7.85
2022-09-24T05:55:50.288Z,8.01
2022-09-24T05:58:18.219Z,8.09
2022-09-24T06:00:48.190Z,8.00
2022-09-24T06:03:15.762Z,8.02
2022-09-24T06:05:46.555Z,7.98
2022-09-24T06:08:15.305Z,8.19
2022-09-24T06:10:42.801Z,8.26
2022-09-24T06:13:11.666Z,8.39
2022-09-24T06:15:39.139Z,8.36
2022-09-24T06:18:05.981Z,8.39
2022-09-24T06:20:33.740Z,8.45
2022-09-24T06:23:00.800Z,8.41
2022-09-24T06:25:27.569Z,8.46
2022-09-24T06:28:01.377Z,8.57
2022-09-24T06:30:31.457Z,8.67
2022-09-24T06:33:05.587Z,8.82
2022-09-24T06:35:36.407Z,8.93
2022-09-24T06:38:03.779Z,9.05
2022-09-24T06:40:36.237Z,9.22
2022-09-24T06:43:04.305Z,9.55
2022-09-24T06:45:31.097Z,9.92
2022-09-24T06:47:58.862Z,10.19
2022-09-24T06:50:27.144Z,9.99
2022-09-24T06:52:54.114Z,9.92
2022-09-24T06:55:20.895Z,9.84
2022-09-24T06:57:47.981Z,9.80
2022-09-24T07:00:15.709Z,9.79
2022-09-24T07:02:42.617Z,9.73
2022-09-24T07:05:10.062Z,9.69
2022-09-24T07:07:37.763Z,9.71
2022-09-24T07:10:06.258Z,9.68
2022-09-24T07:12:34.432Z,9.68
2022-09-24T07:15:01.586Z,9.59
2022-09-24T07:17:33.653Z,9.61
2022-09-24T07:20:01.155Z,9.63
2022-09-24T07:22:28.575Z,9.76
2022-09-24T07:24:55.339Z,9.97
2022-09-24T07:27:22.488Z,10.10
2022-09-24T07:29:49.663Z,10.23
2022-09-24T07:32:20.243Z,10.33
2022-09-24T07:34:50.163Z,10.56
2022-09-24T07:37:16.929Z,10.58
2022-09-24T07:39:45.651Z,10.74
2022-09-24T07:42:12.794Z,11.03
2022-09-24T07:44:39.535Z,10.96
2022-09-24T07:47:06.490Z,11.03
2022-09-24T07:49:33.614Z,11.11
2022-09-24T07:52:00.487Z,11.09
2022-09-24T07:54:27.345Z,11.03
2022-09-24T07:56:54.453Z,11.14
2022-09-24T07:59:21.346Z,10.97
2022-09-24T08:01:48.169Z,11.27
2022-09-24T08:04:15.289Z,11.44
2022-09-24T08:06:47.241Z,11.71
2022-09-24T08:09:15.600Z,11.96
2022-09-24T08:11:42.726Z,12.16
2022-09-24T08:14:09.890Z,12.52
2022-09-24T08:16:36.950Z,12.65
2022-09-24T08:19:04.399Z,12.78
2022-09-24T08:21:32.406Z,12.75
2022-09-24T08:23:59.185Z,12.73
2022-09-24T08:26:26.139Z,12.59
2022-09-24T08:28:53.132Z,12.75
2022-09-24T08:31:20.109Z,12.93
2022-09-24T08:33:50.862Z,13.01
2022-09-24T08:36:18.683Z,12.86
2022-09-24T08:38:45.473Z,12.96
2022-09-24T08:41:12.436Z,13.00
2022-09-24T08:43:42.894Z,12.99
2022-09-24T08:46:37.899Z,13.22
2022-09-24T08:49:06.611Z,13.65
2022-09-24T08:51:39.570Z,13.87
2022-09-24T08:54:09.913Z,14.39
2022-09-24T08:56:38.622Z,14.75
2022-09-24T08:59:14.462Z,14.86
2022-09-24T09:01:48.793Z,15.13
2022-09-24T09:04:25.644Z,15.26
2022-09-24T09:07:02.237Z,15.38
2022-09-24T09:09:38.518Z,15.56
2022-09-24T09:12:10.776Z,15.99
2022-09-24T09:14:54.414Z,16.23
2022-09-24T09:17:21.411Z,16.46
2022-09-24T09:19:53.966Z,16.24
2022-09-24T09:22:23.834Z,15.79
2022-09-24T09:24:52.115Z,15.87
2022-09-24T09:27:20.114Z,15.73
2022-09-24T09:30:03.164Z,15.69
2022-09-24T09:32:39.202Z,15.04
2022-09-24T09:35:08.855Z,15.00
2022-09-24T09:37:39.481Z,15.00
2022-09-24T09:40:29.149Z,15.02
2022-09-24T09:43:03.077Z,14.93
2022-09-24T09:45:33.035Z,14.97
2022-09-24T09:48:03.190Z,15.00
2022-09-24T09:50:49.037Z,15.07
2022-09-24T09:53:21.204Z,15.07
2022-09-24T09:56:07.722Z,15.42
2022-09-24T09:58:36.399Z,15.76
2022-09-24T10:01:06.377Z,15.70
2022-09-24T10:03:56.620Z,15.73
2022-09-24T10:06:25.522Z,15.84
2022-09-24T10:08:52.719Z,16.00
2022-09-24T10:11:20.092Z,16.14
2022-09-24T10:13:47.125Z,16.47
2022-09-24T10:16:16.127Z,16.65
2022-09-24T10:18:47.581Z,16.66
2022-09-24T10:21:28.329Z,16.86
2022-09-24T10:23:59.621Z,17.11
2022-09-24T10:26:45.468Z,16.95
2022-09-24T10:29:33.363Z,16.22
2022-09-24T10:32:00.571Z,16.15
2022-09-24T10:34:28.636Z,16.22
2022-09-24T10:37:07.274Z,16.00
2022-09-24T10:39:37.333Z,15.88
2022-09-24T10:42:05.442Z,16.50
2022-09-24T10:44:38.556Z,17.10
2022-09-24T10:47:11.565Z,17.43
2022-09-24T10:49:38.303Z,16.95
2022-09-24T10:52:09.493Z,16.69
2022-09-24T10:54:36.493Z,16.58
2022-09-24T10:57:18.182Z,16.28
2022-09-24T10:59:50.245Z,16.19
2022-09-24T11:02:31.941Z,16.23
2022-09-24T11:04:59.481Z,16.15
2022-09-24T11:07:45.922Z,16.11
2022-09-24T11:10:13.112Z,16.12
2022-09-24T11:12:46.998Z,15.94
2022-09-24T11:15:23.156Z,16.30
2022-09-24T11:17:56.186Z,16.04
2022-09-24T11:20:39.587Z,15.47
2022-09-24T11:23:12.519Z,15.52
2022-09-24T11:25:58.140Z,15.66
2022-09-24T11:28:43.515Z,15.29
2022-09-24T11:31:36.940Z,15.43
2022-09-24T11:34:21.148Z,15.71
2022-09-24T11:36:57.498Z,15.57
2022-09-24T11:39:42.825Z,15.69
2022-09-24T11:42:16.820Z,15.76
2022-09-24T11:44:44.138Z,15.90
2022-09-24T11:47:15.257Z,15.87
2022-09-24T11:49:42.121Z,15.76
2022-09-24T11:52:27.539Z,15.85
2022-09-24T11:55:13.429Z,16.03
2022-09-24T11:57:43.276Z,16.11
2022-09-24T12:00:14.660Z,16.02
2022-09-24T12:02:48.000Z,15.66
2022-09-24T12:05:22.811Z,16.02
2022-09-24T12:07:49.562Z,16.36
2022-09-24T12:10:19.660Z,16.56
2022-09-24T12:12:48.927Z,16.60
2022-09-24T12:15:20.716Z,16.88
2022-09-24T12:17:50.761Z,16.93
2022-09-24T12:20:23.218Z,16.93
2022-09-24T12:22:52.140Z,16.52
2022-09-24T12:25:19.057Z,16.46
2022-09-24T12:27:46.688Z,16.71
2022-09-24T12:30:49.517Z,16.61
2022-09-24T12:33:42.577Z,16.48
2022-09-24T12:36:16.586Z,16.45
2022-09-24T12:38:53.233Z,16.62
2022-09-24T12:41:24.519Z,16.74
2022-09-24T12:43:54.578Z,16.90
2022-09-24T12:46:23.440Z,17.03
2022-09-24T12:48:50.848Z,16.99
2022-09-24T12:51:22.392Z,17.15
2022-09-24T12:53:56.667Z,16.83
2022-09-24T12:56:26.956Z,16.88
2022-09-24T12:58:53.813Z,16.91
2022-09-24T13:01:27.216Z,17.02
2022-09-24T13:04:12.990Z,17.06
2022-09-24T13:06:40.398Z,16.93
2022-09-24T13:09:26.214Z,16.76
2022-09-24T13:12:03.945Z,16.62
2022-09-24T13:14:32.600Z,16.68
2022-09-24T13:17:05.241Z,16.82
2022-09-24T13:19:39.094Z,16.84
2022-09-24T13:22:06.104Z,16.86
2022-09-24T13:24:53.330Z,16.84
2022-09-24T13:27:32.273Z,16.79
2022-09-24T13:30:05.048Z,16.60
2022-09-24T13:32:34.542Z,16.66
2022-09-24T13:35:07.221Z,16.44
2022-09-24T13:37:38.358Z,16.59
2022-09-24T13:40:16.985Z,16.63
2022-09-24T13:42:46.615Z,16.63
2022-09-24T13:45:23.797Z,16.64
2022-09-24T13:47:53.674Z,16.65
2022-09-24T13:50:32.844Z,16.62
2022-09-24T13:53:02.526Z,16.56
2022-09-24T13:55:38.238Z,16.39
2022-09-24T13:58:05.254Z,16.16
2022-09-24T14:00:37.614Z,16.10
2022-09-24T14:03:17.796Z,16.03
2022-09-24T14:05:45.069Z,15.92
2022-09-24T14:08:15.596Z,15.87
2022-09-24T14:10:42.927Z,15.80
2022-09-24T14:13:19.177Z,15.80
2022-09-24T14:15:58.316Z,15.83
2022-09-24T14:18:26.684Z,15.84
2022-09-24T14:20:56.287Z,15.80
2022-09-24T14:23:24.837Z,15.81
2022-09-24T14:25:52.563Z,15.77
2022-09-24T14:28:19.788Z,15.75
2022-09-24T14:30:51.489Z,15.75
2022-09-24T14:33:20.671Z,15.70
2022-09-24T14:35:49.601Z,15.71
2022-09-24T14:38:20.140Z,15.69
2022-09-24T14:40:47.386Z,15.66
2022-09-24T14:43:37.669Z,15.58
2022-09-24T14:46:07.605Z,15.50
2022-09-24T14:48:35.153Z,15.42
2022-09-24T14:51:02.339Z,15.29
2022-09-24T14:53:36.457Z,15.32
2022-09-24T14:56:27.194Z,15.27
2022-09-24T14:58:54.920Z,15.19
2022-09-24T15:01:24.446Z,15.06
2022-09-24T15:03:56.128Z,14.90
2022-09-24T15:06:30.496Z,14.88
2022-09-24T15:09:00.777Z,14.79
2022-09-24T15:11:29.215Z,14.35
2022-09-24T15:14:02.279Z,14.29
2022-09-24T15:16:32.081Z,14.40
2022-09-24T15:19:19.519Z,14.28
2022-09-24T15:21:56.794Z,14.17
2022-09-24T15:24:25.072Z,14.27
2022-09-24T15:27:06.183Z,14.34
2022-09-24T15:29:33.540Z,14.31
2022-09-24T15:32:01.341Z,14.36
2022-09-24T15:34:29.118Z,14.25
2022-09-24T15:36:59.195Z,14.11
2022-09-24T15:39:27.571Z,14.23
2022-09-24T15:41:54.436Z,14.28
2022-09-24T15:44:28.414Z,14.25
2022-09-24T15:46:58.515Z,14.10
2022-09-24T15:49:26.385Z,14.17
2022-09-24T15:51:57.296Z,14.25
2022-09-24T15:54:25.835Z,14.24
2022-09-24T15:56:52.773Z,14.18
2022-09-24T15:59:20.505Z,14.13
2022-09-24T16:01:49.549Z,14.11
2022-09-24T16:04:17.328Z,14.13
2022-09-24T16:06:44.173Z,14.17
2022-09-24T16:09:11.366Z,14.20
2022-09-24T16:11:38.192Z,14.27
2022-09-24T16:14:05.812Z,14.19
2022-09-24T16:16:33.349Z,14.09
2022-09-24T16:19:00.282Z,13.94
2022-09-24T16:21:27.031Z,13.80
2022-09-24T16:23:57.667Z,13.83
2022-09-24T16:26:25.312Z,13.77
2022-09-24T16:28:52.612Z,13.76
2022-09-24T16:31:19.890Z,13.74
2022-09-24T16:33:47.058Z,13.66
2022-09-24T16:36:14.144Z,13.61
2022-09-24T16:38:41.678Z,13.57
2022-09-24T16:41:10.619Z,13.57
2022-09-24T16:43:37.818Z,13.53
2022-09-24T16:46:06.965Z,13.50
2022-09-24T16:48:35.121Z,13.42
2022-09-24T16:51:11.718Z,13.37
2022-09-24T16:53:38.764Z,13.30
2022-09-24T16:56:05.646Z,13.21
2022-09-24T16:58:33.119Z,13.16
2022-09-24T17:01:00.363Z,13.12
2022-09-24T17:03:27.173Z,13.08
2022-09-24T17:05:53.997Z,13.03
2022-09-24T17:08:22.643Z,12.99
2022-09-24T17:10:51.648Z,12.94
2022-09-24T17:13:23.296Z,12.92
2022-09-24T17:15:50.107Z,12.87
2022-09-24T17:18:16.937Z,12.85
2022-09-24T17:20:43.949Z,12.87
2022-09-24T17:23:10.692Z,12.86
2022-09-24T17:25:37.591Z,12.86
2022-09-24T17:28:04.784Z,12.79
2022-09-24T17:30:31.819Z,12.71
2022-09-24T17:32:59.142Z,12.60
2022-09-24T17:35:26.659Z,12.54
2022-09-24T17:37:53.820Z,12.48
2022-09-24T17:40:24.342Z,12.39
2022-09-24T17:42:52.845Z,12.34
2022-09-24T17:45:20.037Z,12.31
2022-09-24T17:48:00.537Z,12.25
2022-09-24T17:50:29.281Z,12.26
2022-09-24T17:52:57.414Z,12.23
2022-09-24T17:55:24.508Z,12.24
2022-09-24T17:57:52.386Z,12.22
2022-09-24T18:00:20.276Z,12.19
2022-09-24T18:02:49.319Z,12.18
2022-09-24T18:05:17.115Z,12.12
2022-09-24T18:07:45.653Z,12.13
2022-09-24T18:10:14.449Z,12.04
2022-09-24T18:12:42.285Z,12.04
2022-09-24T18:15:10.682Z,12.03
2022-09-24T18:17:37.504Z,11.87
2022-09-24T18:20:04.452Z,11.87
2022-09-24T18:22:31.936Z,11.86
2022-09-24T18:25:01.793Z,11.85
2022-09-24T18:27:31.516Z,11.85
2022-09-24T18:29:59.001Z,11.80
2022-09-24T18:32:26.547Z,11.75
2022-09-24T18:34:53.291Z,11.72
2022-09-24T18:37:20.308Z,11.67
2022-09-24T18:39:47.514Z,11.69
2022-09-24T18:42:14.606Z,11.69
2022-09-24T18:44:41.964Z,11.67
2022-09-24T18:47:08.876Z,11.66
2022-09-24T18:49:36.793Z,11.64
2022-09-24T18:52:03.773Z,11.60
2022-09-24T18:54:31.172Z,11.61
2022-09-24T18:56:57.960Z,11.55
2022-09-24T18:59:26.228Z,11.58
2022-09-24T19:01:53.111Z,11.56
2022-09-24T19:04:19.961Z,11.53
2022-09-24T19:06:52.014Z,11.47
2022-09-24T19:09:20.386Z,11.37
2022-09-24T19:11:49.303Z,11.45
2022-09-24T19:14:19.986Z,11.41
2022-09-24T19:16:47.575Z,11.36
2022-09-24T19:19:15.943Z,11.33
2022-09-24T19:21:42.978Z,11.37
2022-09-24T19:24:10.060Z,11.32
2022-09-24T19:26:37.194Z,11.28
2022-09-24T19:29:04.823Z,11.28
2022-09-24T19:31:34.686Z,11.27
2022-09-24T19:34:05.013Z,11.17
2022-09-24T19:36:36.230Z,11.19
2022-09-24T19:39:05.814Z,11.23
2022-09-24T19:41:32.881Z,11.16
2022-09-24T19:44:04.544Z,11.12
2022-09-24T19:46:34.805Z,11.05
2022-09-24T19:49:01.976Z,11.08
2022-09-24T19:51:31.333Z,10.95
2022-09-24T19:54:00.308Z,10.95
2022-09-24T19:56:27.744Z,10.96
2022-09-24T19:58:56.026Z,10.90
2022-09-24T20:01:24.592Z,10.90
2022-09-24T20:03:51.929Z,10.91
2022-09-24T20:06:20.802Z,10.92
2022-09-24T20:08:47.819Z,10.87
2022-09-24T20:11:17.236Z,10.83
2022-09-24T20:13:46.356Z,10.85
2022-09-24T20:16:15.705Z,10.83
2022-09-24T20:18:42.821Z,10.78
2022-09-24T20:21:12.737Z,10.77
2022-09-24T20:23:40.580Z,10.81
2022-09-24T20:26:26.241Z,10.82
2022-09-24T20:28:53.252Z,10.80
2022-09-24T20:31:21.062Z,10.77
2022-09-24T20:33:49.248Z,10.79
2022-09-24T20:36:20.718Z,10.80
2022-09-24T20:38:50.302Z,10.80
2022-09-24T20:41:19.103Z,10.77
2022-09-24T20:43:46.340Z,10.74
2022-09-24T20:46:24.188Z,10.76
2022-09-24T20:48:52.090Z,10.75
2022-09-24T20:51:21.120Z,10.77
2022-09-24T20:53:48.809Z,10.75
2022-09-24T20:56:16.493Z,10.76
2022-09-24T20:58:43.766Z,10.74
2022-09-24T21:01:11.326Z,10.70
2022-09-24T21:03:44.265Z,10.70
2022-09-24T21:06:12.364Z,10.66
2022-09-24T21:08:40.706Z,10.66
2022-09-24T21:11:09.037Z,10.68
2022-09-24T21:13:39.781Z,10.62
2022-09-24T21:16:07.320Z,10.64
2022-09-24T21:18:40.158Z,10.66
2022-09-24T21:21:10.847Z,10.70
2022-09-24T21:23:38.518Z,10.63
2022-09-24T21:26:20.503Z,10.58
2022-09-24T21:28:48.315Z,10.58
2022-09-24T21:31:16.489Z,10.57
2022-09-24T21:33:47.228Z,10.57
2022-09-24T21:36:18.682Z,10.55
2022-09-24T21:38:52.920Z,10.57
2022-09-24T21:41:20.502Z,10.61
2022-09-24T21:43:47.327Z,10.46
2022-09-24T21:46:14.206Z,10.54
2022-09-24T21:48:41.228Z,10.59
2022-09-24T21:51:13.893Z,10.58
2022-09-24T21:53:42.579Z,10.59
2022-09-24T21:56:09.634Z,10.55
2022-09-24T21:58:37.050Z,10.56
2022-09-24T22:01:07.494Z,10.58
2022-09-24T22:03:34.962Z,10.58
2022-09-24T22:06:03.512Z,10.53
2022-09-24T22:08:32.055Z,10.53
2022-09-24T22:11:03.854Z,10.49
2022-09-24T22:13:31.881Z,10.47
2022-09-24T22:16:00.376Z,10.43
2022-09-24T22:18:28.125Z,10.42
2022-09-24T22:20:55.644Z,10.40
2022-09-24T22:23:22.979Z,10.37
2022-09-24T22:25:56.833Z,10.42
2022-09-24T22:28:25.280Z,10.36
2022-09-24T22:30:53.187Z,10.35
2022-09-24T22:33:38.812Z,10.33
2022-09-24T22:36:05.989Z,10.30
2022-09-24T22:38:33.213Z,10.28
2022-09-24T22:41:00.433Z,10.22
2022-09-24T22:43:29.350Z,10.24
2022-09-24T22:45:59.801Z,10.27
2022-09-24T22:48:26.819Z,10.23
2022-09-24T22:50:53.941Z,10.18
2022-09-24T22:53:21.246Z,10.23
2022-09-24T22:55:52.474Z,10.24
2022-09-24T22:58:19.861Z,10.22
2022-09-24T23:00:46.644Z,10.22
2022-09-24T23:03:13.419Z,10.19
2022-09-24T23:05:40.540Z,10.17
2022-09-24T23:08:07.365Z,10.18
2022-09-24T23:10:34.119Z,10.20
2022-09-24T23:13:01.093Z,10.13
2022-09-24T23:15:27.881Z,10.18
2022-09-24T23:17:55.024Z,10.13
2022-09-24T23:20:22.745Z,10.18
2022-09-24T23:22:49.666Z,10.09
2022-09-24T23:25:17.505Z,10.06
2022-09-24T23:27:44.418Z,10.14
2022-09-24T23:30:11.443Z,9.97
2022-09-24T23:32:38.168Z,10.08
2022-09-24T23:35:05.323Z,10.11
2022-09-24T23:37:32.056Z,10.10
2022-09-24T23:39:58.739Z,10.10
2022-09-24T23:42:25.676Z,10.08
2022-09-24T23:44:52.407Z,10.13
2022-09-24T23:47:19.091Z,10.08
2022-09-24T23:49:45.982Z,10.07
2022-09-24T23:52:12.722Z,10.06
2022-09-24T23:54:40.302Z,10.05
2022-09-24T23:57:07.543Z,10.06
2022-09-24T23:59:34.645Z,10.09
